Airfield :
LOGIN :

Register | Disclaimer

   EN    FR    IT 

 










Legend :    VFR   Marginal VFR   IFR   Intensive IFR   Very Intensive IFR
Visi :
Ceiling :
>= 8 km
>= 3000ft
5 to 8 km
1000 to 3000 ft
1500m to 5 km
500 to 1000 ft
800 to 1500m
200 to 500 ft
< 800m
< 200 ft
Symbols :   Thunderstorms  Fog  Heavy snow  Heavy precipitations  Wind > 20 kt
SIGMETs :     Misc.  Thunderstorms  Icing  Turbulence  Mountain Waves  Volcanic Ashes






- Airport Elevation : 527 ft
- IATA code : DBV


LDDU - Dubrovnik

CURRENT METAR :
  • 130500Z 11020KT 9999 -RA SCT019 BKN030 11/08 Q1016 TEMPO 12020G30KT RA BKN010

EXPIRED METARs :
  • 130430Z 11021KT 080V140 7000 RA FEW005 SCT015 BKN030 11/09 Q1016 TEMPO 12020G30KT
  • 130400Z 12020KT 7000 RA FEW004 BKN017 11/09 Q1017 TEMPO 12020G30KT
  • 130330Z 11017KT 080V140 8000 RA FEW023 SCT035 11/08 Q1017 TEMPO 12020G30KT
  • 130300Z 12021KT 9999 -RA FEW030 SCT050 11/08 Q1017 TEMPO 12020G30KT
  • 130230Z 10015KT 9999 -RA SCT033 10/08 Q1017 RERA NOSIG
  • 130200Z 12014KT 9999 -RA BKN035 11/07 Q1018 NOSIG

TAF TAF LDDU
Valid from the 13 at 00:00 until the 14 at 00:00 UTC


122325Z 1300/1400 13015KT 9999 BKN050 TX15/1311Z TN09/1323Z
PROB40
TEMPO 1300/1312 13015G28KT
TEMPO 1300/1400 4000 RA BKN012
PROB40
TEMPO 1309/1400 TSRA BKN010 FEW012CB BKN035
BECMG 1313/1315 14008KT



MET'MAP, your aeronautical weather chart ! - Copyright ORBIFLY December 2007 - Disclaimer

ORBIFLY MET'MAP TEAM :

Programming & Development : Alexandra Zaïnal
Concept & original design : Baudouin d'Aumeries
Assistance for programming : Marc-Olivier Méhu
Technical & hardware support : Manuel Goepfert

Contact : metmap@orbifly.com




SOURCES & CREDITS :

   NOAA